Time;durP1;ratioP1;P1;durP2;ratioP2;P2;SDS_P1;SDS_P2;PMS_P1;PMS_P2;Temp;Humidity;BMP_temperature;BMP_pressure;BME280_temperature;BME280_humidity;BME280_pressure;Samples;Min_cycle;Max_cycle;Signal;HPM_P1;HPM_P2
2021/11/14 00:00:19;;;;;;;13.40;8.60;;;4.90;99.90;;;;;;4987069;28;20054;-67
2021/11/14 00:02:46;;;;;;;11.65;8.65;;;4.80;99.90;;;;;;4981292;28;20038;-65
2021/11/14 00:05:33;;;;;;;12.77;8.23;;;4.80;99.90;;;;;;4985835;28;20062;-72
2021/11/14 00:08:02;;;;;;;14.93;10.05;;;4.80;99.90;;;;;;4985659;28;20134;-66
2021/11/14 00:10:30;;;;;;;11.73;8.13;;;4.70;99.90;;;;;;4981851;28;20082;-63
2021/11/14 00:12:57;;;;;;;14.43;7.63;;;4.70;99.90;;;;;;4978327;28;20101;-65
2021/11/14 00:15:25;;;;;;;11.25;7.60;;;4.70;99.90;;;;;;4985308;28;20133;-66
2021/11/14 00:17:52;;;;;;;8.75;7.47;;;4.70;99.90;;;;;;4987048;28;20077;-64
2021/11/14 00:20:20;;;;;;;9.88;8.15;;;4.70;99.90;;;;;;4985415;28;20100;-65
2021/11/14 00:22:47;;;;;;;8.88;7.30;;;4.70;99.90;;;;;;4982558;28;20108;-66
2021/11/14 00:25:17;;;;;;;10.90;7.28;;;4.70;99.90;;;;;;4974273;28;20050;-66
2021/11/14 00:27:46;;;;;;;10.13;7.35;;;4.80;99.90;;;;;;4985462;28;20089;-63
2021/11/14 00:30:15;;;;;;;11.40;7.07;;;4.80;99.90;;;;;;4997731;28;20047;-64
2021/11/14 00:32:42;;;;;;;14.60;6.93;;;4.70;99.90;;;;;;4979662;28;20054;-69
2021/11/14 00:35:11;;;;;;;7.70;6.30;;;4.70;99.90;;;;;;4977354;28;20039;-63
2021/11/14 00:37:38;;;;;;;8.00;5.75;;;4.70;99.90;;;;;;4985499;28;20101;-63
2021/11/14 00:40:11;;;;;;;6.90;5.57;;;4.70;99.90;;;;;;4987112;28;20061;-66
2021/11/14 00:42:39;;;;;;;15.40;6.53;;;4.70;99.90;;;;;;4985112;28;21514;-63
2021/11/14 00:45:07;;;;;;;7.70;6.28;;;4.70;99.90;;;;;;4989343;28;20058;-70
2021/11/14 00:47:34;;;;;;;7.45;6.22;;;4.70;99.90;;;;;;4984148;28;20188;-63
2021/11/14 00:50:07;;;;;;;9.00;5.45;;;4.70;99.90;;;;;;4986216;28;20069;-65
2021/11/14 00:52:34;;;;;;;7.70;5.97;;;4.70;99.90;;;;;;4981856;28;20538;-65
2021/11/14 00:55:03;;;;;;;7.75;5.70;;;4.60;99.90;;;;;;4982100;28;20066;-66
2021/11/14 00:57:30;;;;;;;10.20;5.30;;;4.60;99.90;;;;;;4982396;28;20092;-65
2021/11/14 00:59:57;;;;;;;9.18;6.60;;;4.60;99.90;;;;;;4989816;28;20161;-63
2021/11/14 01:02:23;;;;;;;6.68;5.72;;;4.60;99.90;;;;;;4985671;28;20054;-64
2021/11/14 01:04:51;;;;;;;8.38;5.72;;;4.50;99.90;;;;;;4982295;28;20057;-67
2021/11/14 01:07:17;;;;;;;6.00;5.32;;;4.50;99.90;;;;;;4984706;28;20124;-65
2021/11/14 01:09:44;;;;;;;9.80;6.28;;;4.50;99.90;;;;;;4982348;28;20116;-72
2021/11/14 01:12:11;;;;;;;7.38;5.03;;;4.50;99.90;;;;;;4978301;28;20089;-65
2021/11/14 01:14:38;;;;;;;6.93;5.05;;;4.50;99.90;;;;;;4980708;28;20077;-68
2021/11/14 01:17:06;;;;;;;9.98;5.43;;;4.50;99.90;;;;;;4989877;28;20121;-63
2021/11/14 01:19:33;;;;;;;8.60;4.88;;;4.40;99.90;;;;;;4984117;28;20118;-64
2021/11/14 01:22:00;;;;;;;7.60;5.28;;;4.40;99.90;;;;;;4983358;28;20046;-64
2021/11/14 01:24:31;;;;;;;5.60;4.90;;;4.40;99.90;;;;;;4973642;28;20104;-67
2021/11/14 01:26:58;;;;;;;8.00;5.43;;;4.30;99.90;;;;;;4986352;28;20046;-64
2021/11/14 01:29:25;;;;;;;5.35;4.72;;;4.30;99.90;;;;;;4981778;28;20085;-71
2021/11/14 01:31:52;;;;;;;5.70;4.43;;;4.30;99.90;;;;;;4984865;28;20137;-67
2021/11/14 01:34:19;;;;;;;8.55;5.85;;;4.20;99.90;;;;;;4981803;28;20554;-65
2021/11/14 01:36:46;;;;;;;5.07;4.43;;;4.20;99.90;;;;;;4984995;28;20046;-65
2021/11/14 01:39:13;;;;;;;10.43;5.45;;;4.10;99.90;;;;;;4985538;28;20636;-64
2021/11/14 01:41:40;;;;;;;6.28;5.63;;;4.10;99.90;;;;;;4985390;28;20407;-64
2021/11/14 01:44:08;;;;;;;8.80;5.00;;;4.00;99.90;;;;;;4984029;28;20432;-67
2021/11/14 01:46:35;;;;;;;7.78;4.90;;;4.10;99.90;;;;;;4983601;28;20047;-66
2021/11/14 01:49:04;;;;;;;6.75;5.72;;;4.10;99.90;;;;;;4982316;28;20046;-67
2021/11/14 01:51:52;;;;;;;13.43;6.30;;;4.10;99.90;;;;;;4981729;28;20552;-67
2021/11/14 01:54:20;;;;;;;9.23;4.97;;;4.10;99.90;;;;;;4984827;28;20073;-65
2021/11/14 01:56:47;;;;;;;11.00;6.38;;;4.10;99.90;;;;;;4975940;28;20555;-70
2021/11/14 01:59:15;;;;;;;10.05;6.03;;;4.20;99.90;;;;;;4981727;28;20038;-66
2021/11/14 02:01:42;;;;;;;7.95;7.15;;;4.20;99.90;;;;;;4981991;28;20129;-64
2021/11/14 02:04:09;;;;;;;13.05;6.43;;;4.20;99.90;;;;;;4973460;28;20055;-69
2021/11/14 02:06:40;;;;;;;7.65;5.30;;;4.20;99.90;;;;;;4979530;28;20047;-65
2021/11/14 02:09:07;;;;;;;6.13;5.53;;;4.20;99.90;;;;;;4983539;28;20369;-65
2021/11/14 02:11:35;;;;;;;7.30;6.25;;;4.30;99.90;;;;;;4976588;28;20109;-72
2021/11/14 02:14:02;;;;;;;5.93;5.32;;;4.20;99.90;;;;;;4981933;28;20108;-69
2021/11/14 02:16:30;;;;;;;6.50;5.65;;;4.20;99.90;;;;;;4982622;28;20380;-64
2021/11/14 02:18:58;;;;;;;7.97;5.13;;;4.20;99.90;;;;;;4983351;28;20073;-72
2021/11/14 02:21:25;;;;;;;8.43;5.95;;;4.20;99.90;;;;;;4984693;28;20480;-68
2021/11/14 02:23:52;;;;;;;7.55;5.57;;;4.20;99.90;;;;;;4981253;28;20081;-65
2021/11/14 02:26:22;;;;;;;6.72;5.55;;;4.10;99.90;;;;;;4982655;28;20054;-67
2021/11/14 02:28:51;;;;;;;8.35;5.43;;;4.10;99.90;;;;;;4984683;28;20532;-65
2021/11/14 02:31:20;;;;;;;7.65;5.68;;;4.10;99.90;;;;;;4981544;28;20129;-63
2021/11/14 02:33:47;;;;;;;11.73;6.50;;;4.10;99.90;;;;;;4986054;28;20046;-67
2021/11/14 02:36:14;;;;;;;7.35;5.38;;;4.00;99.90;;;;;;4991438;28;20107;-64
2021/11/14 02:38:42;;;;;;;11.93;6.65;;;4.00;99.90;;;;;;4983419;28;20061;-63
2021/11/14 02:41:10;;;;;;;8.65;5.85;;;4.00;99.90;;;;;;4985300;28;20066;-64
2021/11/14 02:43:40;;;;;;;8.45;7.25;;;4.00;99.90;;;;;;4984924;28;20579;-66
2021/11/14 02:46:08;;;;;;;10.07;5.70;;;4.00;99.90;;;;;;4984822;28;20096;-67
2021/11/14 02:48:35;;;;;;;7.97;5.97;;;4.00;99.90;;;;;;4992126;28;20082;-71
2021/11/14 02:51:06;;;;;;;16.42;6.03;;;4.00;99.90;;;;;;4984713;28;20042;-63
2021/11/14 02:53:33;;;;;;;;;;;4.00;99.90;;;;;;4981185;28;20098;-65
2021/11/14 02:56:00;;;;;;;9.07;5.45;;;4.00;99.90;;;;;;4983620;28;19925;-64
2021/11/14 02:58:30;;;;;;;10.88;6.50;;;4.00;99.90;;;;;;4984879;28;20116;-65
2021/11/14 03:01:08;;;;;;;8.57;5.85;;;4.00;99.90;;;;;;4984881;28;20108;-67
2021/11/14 03:03:36;;;;;;;9.98;6.07;;;4.00;99.90;;;;;;4986289;28;20065;-66
2021/11/14 03:06:03;;;;;;;7.25;6.40;;;4.00;99.90;;;;;;4979657;28;20047;-67
2021/11/14 03:08:31;;;;;;;9.82;6.78;;;4.00;99.90;;;;;;4982195;28;20117;-67
2021/11/14 03:10:58;;;;;;;10.05;6.68;;;4.00;99.90;;;;;;4983439;28;20224;-65
2021/11/14 03:13:25;;;;;;;10.65;6.75;;;4.00;99.90;;;;;;4982790;28;20050;-68
2021/11/14 03:15:58;;;;;;;14.68;6.93;;;4.00;99.90;;;;;;4975952;28;20047;-68
2021/11/14 03:18:26;;;;;;;7.95;6.70;;;4.00;99.90;;;;;;4982614;28;20042;-72
2021/11/14 03:20:54;;;;;;;11.60;7.10;;;4.10;99.90;;;;;;4983789;28;20497;-73
2021/11/14 03:23:24;;;;;;;11.88;6.40;;;4.10;99.90;;;;;;4983651;28;20664;-63
2021/11/14 03:25:51;;;;;;;9.00;6.28;;;4.10;99.90;;;;;;4978433;28;20129;-69
2021/11/14 03:28:19;;;;;;;10.13;7.43;;;4.10;99.90;;;;;;4986073;28;20181;-66
2021/11/14 03:30:48;;;;;;;8.48;5.95;;;4.10;99.90;;;;;;4981573;28;20097;-63
2021/11/14 03:33:16;;;;;;;9.77;6.32;;;4.10;99.90;;;;;;4990761;28;20050;-63
2021/11/14 03:35:51;;;;;;;8.27;6.85;;;4.20;99.90;;;;;;4986924;28;20050;-70
2021/11/14 03:38:32;;;;;;;12.88;6.88;;;4.20;99.90;;;;;;4986234;28;20074;-62
2021/11/14 03:41:00;;;;;;;11.75;7.05;;;4.20;99.90;;;;;;4981837;28;20073;-71
2021/11/14 03:43:28;;;;;;;9.38;7.10;;;4.30;99.90;;;;;;4980190;28;20051;-63
2021/11/14 03:45:55;;;;;;;12.70;7.57;;;4.30;99.90;;;;;;4981992;28;20047;-65
2021/11/14 03:48:25;;;;;;;8.73;6.60;;;4.20;99.90;;;;;;4979945;28;20061;-66
2021/11/14 03:50:53;;;;;;;10.45;8.68;;;4.20;99.90;;;;;;4983497;28;20100;-64
2021/11/14 03:53:21;;;;;;;12.60;7.07;;;4.10;99.90;;;;;;4989480;28;20057;-63
2021/11/14 03:55:49;;;;;;;12.20;6.75;;;4.10;99.90;;;;;;4983990;28;20050;-65
2021/11/14 03:58:17;;;;;;;10.82;6.93;;;4.00;99.90;;;;;;4986743;28;20128;-63
2021/11/14 04:00:48;;;;;;;12.13;8.38;;;4.00;99.90;;;;;;4980073;28;20047;-63
2021/11/14 04:03:15;;;;;;;8.98;5.93;;;4.00;99.90;;;;;;4978742;28;20050;-66
2021/11/14 04:05:44;;;;;;;8.43;6.70;;;3.90;99.90;;;;;;4981083;28;20400;-65
2021/11/14 04:08:16;;;;;;;7.47;5.97;;;3.80;99.90;;;;;;4984305;28;20592;-69
2021/11/14 04:10:46;;;;;;;8.30;6.75;;;3.80;99.90;;;;;;4970466;28;20058;-62
2021/11/14 04:13:14;;;;;;;10.88;6.75;;;3.70;99.90;;;;;;4984153;28;20062;-64
2021/11/14 04:15:42;;;;;;;7.95;6.72;;;3.70;99.90;;;;;;4977394;28;20114;-63
2021/11/14 04:18:09;;;;;;;12.13;7.45;;;3.60;99.90;;;;;;4982042;28;20125;-65
2021/11/14 04:20:40;;;;;;;9.45;6.15;;;3.60;99.90;;;;;;4979075;28;20078;-64
2021/11/14 04:23:08;;;;;;;11.20;6.72;;;3.60;99.90;;;;;;4988998;28;20381;-66
2021/11/14 04:25:37;;;;;;;11.50;6.10;;;3.60;99.90;;;;;;4981548;28;20058;-65
2021/11/14 04:28:06;;;;;;;11.70;8.60;;;3.60;99.90;;;;;;4983924;28;20050;-67
2021/11/14 04:30:33;;;;;;;8.48;6.88;;;3.50;99.90;;;;;;4980022;28;20504;-71
2021/11/14 04:33:00;;;;;;;18.80;9.32;;;3.50;99.90;;;;;;4981583;28;20140;-71
2021/11/14 04:35:27;;;;;;;13.32;7.43;;;3.50;99.90;;;;;;4982311;28;20054;-63
2021/11/14 04:37:54;;;;;;;9.98;7.55;;;3.40;99.90;;;;;;4974914;28;20474;-65
2021/11/14 04:40:24;;;;;;;7.63;6.20;;;3.40;99.90;;;;;;4980663;28;20438;-65
2021/11/14 04:42:51;;;;;;;9.73;6.63;;;3.30;99.90;;;;;;4977676;28;20132;-70
2021/11/14 04:45:19;;;;;;;10.70;7.30;;;3.30;99.90;;;;;;4985127;28;20070;-64
2021/11/14 04:47:47;;;;;;;9.43;7.50;;;3.30;99.90;;;;;;4983598;28;20073;-63
2021/11/14 04:50:17;;;;;;;10.63;6.35;;;3.30;99.90;;;;;;4998476;28;20074;-64
2021/11/14 04:52:46;;;;;;;9.68;6.82;;;3.20;99.90;;;;;;4982938;28;20043;-64
2021/11/14 04:55:13;;;;;;;10.07;6.68;;;3.20;99.90;;;;;;4993267;28;20467;-68
2021/11/14 04:57:41;;;;;;;10.88;7.40;;;3.20;99.90;;;;;;4982145;28;20046;-70
2021/11/14 05:00:13;;;;;;;12.00;7.18;;;3.20;99.90;;;;;;4975799;28;20078;-68
2021/11/14 05:02:40;;;;;;;9.95;7.18;;;3.20;99.90;;;;;;4982152;28;20424;-68
2021/11/14 05:05:08;;;;;;;11.25;6.78;;;3.20;99.90;;;;;;4982137;28;20046;-63
2021/11/14 05:07:35;;;;;;;10.32;7.50;;;3.10;99.90;;;;;;4982787;28;20535;-65
2021/11/14 05:10:03;;;;;;;13.10;7.60;;;3.20;99.90;;;;;;4979652;28;20038;-66
2021/11/14 05:12:30;;;;;;;12.50;7.95;;;3.20;99.90;;;;;;4979176;28;20066;-64
2021/11/14 05:14:57;;;;;;;12.30;8.18;;;3.20;99.90;;;;;;4978693;28;20655;-64
2021/11/14 05:17:24;;;;;;;11.70;8.20;;;3.20;99.90;;;;;;4979278;28;20608;-68
2021/11/14 05:19:52;;;;;;;9.75;7.80;;;3.30;99.90;;;;;;4981163;28;20054;-71
2021/11/14 05:22:19;;;;;;;13.55;8.55;;;3.30;99.90;;;;;;4977771;28;20050;-68
2021/11/14 05:24:46;;;;;;;13.77;9.38;;;3.30;99.90;;;;;;4979573;28;20136;-70
2021/11/14 05:27:14;;;;;;;17.10;10.70;;;3.30;99.90;;;;;;4989648;28;20511;-66
2021/11/14 05:29:41;;;;;;;11.60;8.15;;;3.30;99.90;;;;;;4981801;28;20096;-65
2021/11/14 05:32:09;;;;;;;14.23;8.55;;;3.30;99.90;;;;;;4980014;28;20034;-65
2021/11/14 05:34:36;;;;;;;11.50;8.93;;;3.30;99.90;;;;;;4978638;28;21412;-65
2021/11/14 05:37:04;;;;;;;13.00;8.50;;;3.30;99.90;;;;;;4972787;28;20062;-67
2021/11/14 05:39:30;;;;;;;12.32;7.55;;;3.30;99.90;;;;;;4984824;28;20074;-64
2021/11/14 05:41:57;;;;;;;13.32;8.98;;;3.40;99.90;;;;;;4981427;28;20042;-66
2021/11/14 05:44:24;;;;;;;9.18;7.63;;;3.40;99.90;;;;;;4984254;28;20107;-64
2021/11/14 05:46:51;;;;;;;13.40;9.05;;;3.50;99.90;;;;;;4976111;28;20498;-68
2021/11/14 05:49:18;;;;;;;14.70;9.27;;;3.50;99.90;;;;;;4983874;28;20050;-64
2021/11/14 05:51:46;;;;;;;10.13;7.88;;;3.50;99.90;;;;;;4982307;28;20126;-67
2021/11/14 05:54:13;;;;;;;11.40;8.25;;;3.40;99.90;;;;;;4981199;28;20097;-66
2021/11/14 05:56:40;;;;;;;11.18;8.00;;;3.50;99.90;;;;;;4980926;28;20460;-63
2021/11/14 06:04:49;;;;;;;10.10;8.10;;;3.50;99.90;;;;;;4982708;28;20082;-66
2021/11/14 06:07:16;;;;;;;11.70;7.97;;;3.60;99.90;;;;;;4986589;28;20507;-64
2021/11/14 06:09:43;;;;;;;15.65;9.30;;;3.50;99.90;;;;;;4984617;28;20104;-67
2021/11/14 06:12:10;;;;;;;10.15;8.05;;;3.60;99.90;;;;;;4980780;28;20312;-63
2021/11/14 06:14:37;;;;;;;14.27;10.27;;;3.60;99.90;;;;;;4985921;28;20628;-63
2021/11/14 06:17:04;;;;;;;11.55;9.25;;;3.50;99.90;;;;;;4985121;28;20377;-66
2021/11/14 06:19:31;;;;;;;10.90;8.30;;;3.50;99.90;;;;;;4982316;28;20078;-65
2021/11/14 06:21:58;;;;;;;13.57;7.47;;;3.50;99.90;;;;;;4984234;28;20109;-66
2021/11/14 06:24:25;;;;;;;9.93;8.25;;;3.50;99.90;;;;;;4979206;28;20228;-69
2021/11/14 06:26:52;;;;;;;12.93;7.22;;;3.50;99.90;;;;;;4985771;28;20126;-63
2021/11/14 06:29:19;;;;;;;12.60;8.10;;;3.50;99.90;;;;;;4982940;28;20139;-75
2021/11/14 06:31:46;;;;;;;13.77;8.05;;;3.40;99.90;;;;;;4988520;28;20125;-63
2021/11/14 06:34:13;;;;;;;9.80;6.65;;;3.40;99.90;;;;;;4985805;28;20116;-65
2021/11/14 06:36:40;;;;;;;12.45;7.65;;;3.40;99.90;;;;;;4999323;28;20405;-65
2021/11/14 06:39:07;;;;;;;11.88;6.55;;;3.40;99.90;;;;;;4978094;28;20089;-63
2021/11/14 06:41:34;;;;;;;7.55;5.47;;;3.40;99.90;;;;;;4981465;28;20138;-64
2021/11/14 06:44:01;;;;;;;9.38;6.63;;;3.30;99.90;;;;;;4984092;28;20042;-66
2021/11/14 06:46:28;;;;;;;7.38;5.93;;;3.30;99.90;;;;;;4981742;28;20038;-68
2021/11/14 06:48:54;;;;;;;11.00;5.88;;;3.30;99.90;;;;;;4985975;28;20057;-68
2021/11/14 06:51:21;;;;;;;9.50;6.85;;;3.30;99.90;;;;;;4984006;28;20067;-66
2021/11/14 06:53:48;;;;;;;14.07;7.75;;;3.30;99.90;;;;;;4984249;28;20417;-63
2021/11/14 06:56:15;;;;;;;11.15;7.82;;;3.30;99.90;;;;;;4978145;28;20105;-65
2021/11/14 06:58:42;;;;;;;10.95;7.60;;;3.30;99.90;;;;;;4985591;28;20500;-67
2021/11/14 07:01:09;;;;;;;12.32;7.13;;;3.30;99.90;;;;;;4982383;28;20508;-71
2021/11/14 07:03:36;;;;;;;8.32;6.20;;;3.30;99.90;;;;;;4982266;28;20039;-64
2021/11/14 07:06:03;;;;;;;10.65;7.78;;;3.30;99.90;;;;;;4982312;28;20077;-64
2021/11/14 07:08:30;;;;;;;16.23;6.28;;;3.40;99.90;;;;;;4998374;28;20145;-63
2021/11/14 07:10:57;;;;;;;9.40;6.90;;;3.30;99.90;;;;;;4981601;28;20053;-68
2021/11/14 07:13:24;;;;;;;10.10;8.15;;;3.40;99.90;;;;;;4987341;28;20156;-66
2021/11/14 07:15:51;;;;;;;10.35;6.93;;;3.30;99.90;;;;;;4981959;28;20129;-67
2021/11/14 07:18:19;;;;;;;10.38;6.53;;;3.30;99.90;;;;;;4984401;28;20046;-64
2021/11/14 07:20:46;;;;;;;8.52;7.10;;;3.30;99.90;;;;;;4982475;28;20050;-66
2021/11/14 07:23:13;;;;;;;9.05;8.15;;;3.30;99.90;;;;;;4984062;28;20120;-66
2021/11/14 07:25:40;;;;;;;11.60;8.23;;;3.20;99.90;;;;;;4980468;28;20133;-68
2021/11/14 07:28:06;;;;;;;11.23;8.38;;;3.20;99.90;;;;;;4985127;28;20070;-65
2021/11/14 07:30:33;;;;;;;11.55;7.45;;;3.20;99.90;;;;;;4985122;28;20141;-63
2021/11/14 07:33:00;;;;;;;10.60;8.35;;;3.20;99.90;;;;;;4985650;28;20125;-66
2021/11/14 07:35:27;;;;;;;9.68;7.82;;;3.20;99.90;;;;;;4986153;28;20046;-63
2021/11/14 07:37:55;;;;;;;11.32;8.32;;;3.20;99.90;;;;;;4980803;28;20046;-64
2021/11/14 07:40:23;;;;;;;8.52;6.78;;;3.20;99.90;;;;;;4982724;28;20140;-66
2021/11/14 07:42:51;;;;;;;10.90;7.18;;;3.20;99.90;;;;;;4983096;28;20527;-63
2021/11/14 07:45:21;;;;;;;9.85;7.20;;;3.20;99.90;;;;;;4981527;28;20189;-69
2021/11/14 07:47:49;;;;;;;9.25;7.47;;;3.20;99.90;;;;;;4983926;28;20101;-69
2021/11/14 07:50:18;;;;;;;10.20;7.47;;;3.20;99.90;;;;;;4985456;28;20145;-64
2021/11/14 07:52:46;;;;;;;8.20;6.85;;;3.20;99.90;;;;;;4982469;28;20097;-66
2021/11/14 07:55:13;;;;;;;9.13;7.72;;;3.20;99.90;;;;;;4998028;28;20046;-74
2021/11/14 07:57:44;;;;;;;9.43;7.22;;;3.30;99.90;;;;;;4976959;28;20562;-62
2021/11/14 08:00:17;;;;;;;7.90;6.30;;;3.30;99.90;;;;;;4984657;28;20092;-64
2021/11/14 08:02:44;;;;;;;8.23;6.22;;;3.40;99.90;;;;;;4979559;28;20046;-67
2021/11/14 08:05:12;;;;;;;9.43;7.13;;;3.40;99.90;;;;;;4984065;28;20463;-68
2021/11/14 08:07:40;;;;;;;8.57;6.13;;;3.40;99.90;;;;;;4985161;28;20052;-67
2021/11/14 08:10:08;;;;;;;8.73;6.82;;;3.50;99.90;;;;;;4983648;28;20076;-64
2021/11/14 08:12:35;;;;;;;8.45;7.05;;;3.40;99.90;;;;;;4981523;28;20136;-63
2021/11/14 08:15:03;;;;;;;9.80;7.32;;;3.50;99.90;;;;;;4984440;28;20463;-65
2021/11/14 08:17:30;;;;;;;7.47;6.25;;;3.60;99.90;;;;;;4979939;28;20554;-64
2021/11/14 08:20:00;;;;;;;6.05;5.35;;;3.60;99.90;;;;;;4974991;28;20088;-63
2021/11/14 08:22:28;;;;;;;11.75;7.30;;;3.60;99.90;;;;;;4978265;28;20058;-64
2021/11/14 08:24:56;;;;;;;11.50;7.53;;;3.70;99.90;;;;;;4978641;28;20054;-65
2021/11/14 08:27:23;;;;;;;8.98;7.05;;;3.80;99.90;;;;;;4981354;28;20042;-66
2021/11/14 08:29:51;;;;;;;8.07;6.90;;;3.90;99.90;;;;;;4985759;28;20051;-64
2021/11/14 08:32:18;;;;;;;9.65;6.25;;;3.90;99.90;;;;;;4982911;28;20050;-65
2021/11/14 08:34:46;;;;;;;8.98;6.53;;;4.00;99.90;;;;;;4980990;28;20125;-66
2021/11/14 08:37:14;;;;;;;7.55;6.20;;;4.00;99.90;;;;;;4983073;28;20574;-66
2021/11/14 08:39:41;;;;;;;8.95;7.03;;;4.10;99.90;;;;;;4975299;28;20058;-63
2021/11/14 08:42:09;;;;;;;9.98;6.22;;;4.20;99.90;;;;;;4984162;28;20452;-72
2021/11/14 08:44:36;;;;;;;9.05;7.85;;;4.20;99.90;;;;;;4981057;28;20104;-64
2021/11/14 08:47:05;;;;;;;10.00;6.80;;;4.20;99.90;;;;;;4977618;28;20053;-65
2021/11/14 08:49:32;;;;;;;10.32;6.70;;;4.30;99.90;;;;;;4983118;28;20081;-64
2021/11/14 08:52:00;;;;;;;7.07;6.10;;;4.30;99.90;;;;;;4989659;28;20591;-66
2021/11/14 08:54:27;;;;;;;9.63;7.68;;;4.40;99.90;;;;;;4982062;28;20054;-64
2021/11/14 08:56:54;;;;;;;8.55;6.05;;;4.40;99.90;;;;;;4982029;28;20042;-66
2021/11/14 08:59:21;;;;;;;7.82;6.85;;;4.50;99.90;;;;;;4984003;28;20112;-67
2021/11/14 09:01:48;;;;;;;7.53;6.82;;;4.50;99.90;;;;;;4976909;28;20084;-68
2021/11/14 09:04:16;;;;;;;8.32;6.30;;;4.60;99.90;;;;;;4979341;28;20061;-64
2021/11/14 09:06:43;;;;;;;7.03;6.32;;;4.60;99.90;;;;;;4974894;28;20101;-68
2021/11/14 09:09:10;;;;;;;7.30;6.10;;;4.70;99.90;;;;;;4979547;28;20607;-70
2021/11/14 09:11:43;;;;;;;9.45;7.70;;;4.80;99.90;;;;;;4981688;28;20105;-63
2021/11/14 09:14:11;;;;;;;9.98;6.22;;;4.90;99.90;;;;;;4981873;28;20046;-69
2021/11/14 09:16:39;;;;;;;8.20;6.95;;;4.90;99.90;;;;;;4980127;28;20459;-65
2021/11/14 09:19:07;;;;;;;9.13;6.25;;;5.00;99.90;;;;;;4982243;28;20038;-67
2021/11/14 09:21:38;;;;;;;6.82;5.90;;;5.10;99.90;;;;;;4983736;28;20050;-66
2021/11/14 09:24:07;;;;;;;8.13;7.10;;;5.20;99.90;;;;;;4977496;28;20536;-68
2021/11/14 09:26:34;;;;;;;9.82;7.05;;;5.20;99.90;;;;;;4980423;28;20143;-64
2021/11/14 09:29:01;;;;;;;8.00;7.18;;;5.30;99.90;;;;;;4985962;28;20069;-65
2021/11/14 09:31:29;;;;;;;11.95;7.25;;;5.40;99.90;;;;;;4986881;28;20046;-64
2021/11/14 09:33:57;;;;;;;13.65;7.40;;;5.50;99.90;;;;;;4986351;28;20054;-66
2021/11/14 09:36:30;;;;;;;8.57;6.50;;;5.50;99.90;;;;;;4982453;28;20113;-64
2021/11/14 09:39:03;;;;;;;6.70;6.00;;;5.60;99.90;;;;;;4984655;28;20137;-67
2021/11/14 09:41:30;;;;;;;7.20;6.28;;;5.60;99.90;;;;;;4984373;28;20039;-70
2021/11/14 09:43:57;;;;;;;10.25;6.93;;;5.70;99.90;;;;;;4986871;28;20066;-63
2021/11/14 09:46:40;;;;;;;8.02;7.22;;;5.70;99.90;;;;;;4999905;28;20528;-64
2021/11/14 09:49:08;;;;;;;;;;;5.80;99.90;;;;;;4984684;28;20520;-64
2021/11/14 09:51:35;;;;;;;8.02;6.20;;;5.90;99.90;;;;;;4988228;28;20012;-64
2021/11/14 09:54:02;;;;;;;6.07;5.47;;;5.90;99.90;;;;;;4981567;28;20066;-70
2021/11/14 09:56:29;;;;;;;6.93;6.20;;;6.00;99.90;;;;;;4984589;28;20085;-68
2021/11/14 09:58:56;;;;;;;10.25;7.03;;;6.10;99.90;;;;;;4988039;28;20095;-66
2021/11/14 10:01:23;;;;;;;6.72;5.97;;;6.20;99.90;;;;;;4980402;28;20047;-75
2021/11/14 10:03:50;;;;;;;7.20;6.15;;;6.20;99.90;;;;;;4988635;28;20038;-64
2021/11/14 10:06:22;;;;;;;7.85;5.82;;;6.20;99.90;;;;;;4984704;28;20082;-71
2021/11/14 10:08:51;;;;;;;7.28;6.53;;;6.30;99.90;;;;;;4977742;28;20042;-70
2021/11/14 10:11:29;;;;;;;6.88;4.97;;;6.40;99.90;;;;;;4997720;28;20420;-64
2021/11/14 10:13:57;;;;;;;7.82;6.32;;;6.40;99.90;;;;;;5012113;28;20077;-67
2021/11/14 10:16:38;;;;;;;7.50;5.43;;;6.50;99.90;;;;;;4983867;28;20051;-66
2021/11/14 10:19:24;;;;;;;7.95;5.85;;;6.50;99.90;;;;;;5018145;28;20105;-66
2021/11/14 10:21:55;;;;;;;6.50;4.85;;;6.50;99.90;;;;;;5002376;28;20392;-64
2021/11/14 10:24:23;;;;;;;5.90;4.65;;;6.60;99.90;;;;;;4984984;28;20068;-67
2021/11/14 10:26:50;;;;;;;6.15;5.40;;;6.60;99.90;;;;;;4984093;28;20125;-63
2021/11/14 10:29:18;;;;;;;4.70;4.18;;;6.60;99.90;;;;;;4987045;28;20045;-63
2021/11/14 10:31:45;;;;;;;5.13;3.78;;;6.70;99.90;;;;;;4988455;28;20561;-65
2021/11/14 10:34:16;;;;;;;4.45;3.65;;;6.70;99.90;;;;;;4980304;28;20074;-65
2021/11/14 10:36:42;;;;;;;;;;;6.80;99.90;;;;;;4982880;28;20054;-63
2021/11/14 10:39:12;;;;;;;4.10;2.70;;;6.80;99.90;;;;;;4983905;28;19968;-66
2021/11/14 10:41:47;;;;;;;2.23;1.77;;;6.80;99.90;;;;;;4985921;28;20049;-66
2021/11/14 10:44:17;;;;;;;2.75;1.95;;;6.90;99.90;;;;;;4988006;28;20150;-64
2021/11/14 10:46:44;;;;;;;2.88;2.55;;;7.00;99.90;;;;;;4998126;28;20085;-66
2021/11/14 10:49:12;;;;;;;1.58;1.27;;;7.00;99.90;;;;;;4985783;28;20105;-63
2021/11/14 10:51:40;;;;;;;4.20;1.45;;;7.00;99.90;;;;;;4986523;28;20180;-68
2021/11/14 10:54:10;;;;;;;2.72;1.40;;;7.00;99.90;;;;;;4987810;28;20511;-65
2021/11/14 10:56:39;;;;;;;0.73;0.73;;;7.00;99.90;;;;;;4981958;28;20034;-63
2021/11/14 10:59:08;;;;;;;0.63;0.63;;;7.00;99.90;;;;;;4995151;28;20128;-63
2021/11/14 11:01:36;;;;;;;1.45;1.10;;;7.00;99.90;;;;;;4984381;28;20081;-66
2021/11/14 11:04:07;;;;;;;3.42;1.08;;;7.00;99.90;;;;;;4985651;28;20758;-66
2021/11/14 11:06:34;;;;;;;1.55;1.10;;;7.00;99.90;;;;;;4986278;28;20157;-66
2021/11/14 11:09:06;;;;;;;2.08;0.90;;;7.00;99.90;;;;;;4977192;28;20362;-71
2021/11/14 11:11:43;;;;;;;2.38;0.90;;;7.00;99.90;;;;;;4986132;28;20125;-63
2021/11/14 11:14:11;;;;;;;1.30;1.00;;;7.10;99.90;;;;;;4984797;28;20456;-63
2021/11/14 11:16:38;;;;;;;2.53;0.90;;;7.10;99.90;;;;;;4987475;28;20073;-63
2021/11/14 11:19:12;;;;;;;2.83;0.98;;;7.20;99.90;;;;;;4988347;28;20048;-66
2021/11/14 11:21:44;;;;;;;2.92;1.10;;;7.20;99.90;;;;;;4982203;28;20707;-69
2021/11/14 11:24:23;;;;;;;2.53;1.00;;;7.20;99.90;;;;;;4987136;28;20069;-66
2021/11/14 11:27:00;;;;;;;0.82;0.70;;;7.20;99.90;;;;;;4986762;28;20078;-63
2021/11/14 11:29:29;;;;;;;1.65;1.08;;;7.30;99.90;;;;;;4983557;28;20109;-62
2021/11/14 11:31:57;;;;;;;1.25;0.55;;;7.30;99.90;;;;;;4986690;28;20520;-67
2021/11/14 11:34:25;;;;;;;0.60;0.55;;;7.40;99.90;;;;;;4988564;28;20070;-65
2021/11/14 11:36:53;;;;;;;3.40;0.50;;;7.50;99.90;;;;;;4985207;28;20055;-69
2021/11/14 11:39:21;;;;;;;0.70;0.70;;;7.50;99.90;;;;;;4986789;28;20047;-64
2021/11/14 11:41:50;;;;;;;2.20;0.88;;;7.60;99.90;;;;;;4987974;28;20062;-66
2021/11/14 11:44:26;;;;;;;1.38;0.57;;;7.60;99.90;;;;;;4988677;28;20042;-67
2021/11/14 11:47:00;;;;;;;2.55;1.00;;;7.70;99.90;;;;;;4984709;28;20039;-63
2021/11/14 11:49:37;;;;;;;1.25;0.95;;;7.60;99.90;;;;;;4986722;28;20116;-63
2021/11/14 11:52:17;;;;;;;2.15;0.60;;;7.60;99.90;;;;;;4982395;28;20038;-63
2021/11/14 11:54:48;;;;;;;5.35;1.10;;;7.60;99.90;;;;;;4986905;28;20140;-69
2021/11/14 11:57:19;;;;;;;1.70;1.00;;;7.50;99.90;;;;;;4988547;28;20058;-70
2021/11/14 12:00:04;;;;;;;2.65;1.00;;;7.50;99.90;;;;;;4983564;28;20047;-69
2021/11/14 12:02:39;;;;;;;4.63;1.42;;;7.50;99.90;;;;;;4995889;28;20101;-64
2021/11/14 12:05:12;;;;;;;2.15;0.65;;;7.50;99.90;;;;;;4980962;28;20101;-66
2021/11/14 12:07:50;;;;;;;0.77;0.77;;;7.50;99.90;;;;;;4984236;28;20065;-64
2021/11/14 12:10:23;;;;;;;1.73;0.90;;;7.50;99.90;;;;;;4981616;28;20038;-64
2021/11/14 12:12:51;;;;;;;1.98;0.90;;;7.40;99.90;;;;;;4987811;28;20051;-68
2021/11/14 12:15:25;;;;;;;2.80;1.23;;;7.40;99.90;;;;;;4982475;28;20157;-68
2021/11/14 12:17:59;;;;;;;0.70;0.70;;;7.40;99.90;;;;;;4981956;28;20798;-65
2021/11/14 12:20:34;;;;;;;0.65;0.52;;;7.40;99.90;;;;;;4982299;28;20061;-63
2021/11/14 12:23:17;;;;;;;1.05;0.60;;;7.40;99.90;;;;;;4980148;28;20148;-72
2021/11/14 12:25:47;;;;;;;1.92;1.00;;;7.40;99.90;;;;;;4975091;28;20101;-66
2021/11/14 12:28:18;;;;;;;1.15;0.80;;;7.30;99.90;;;;;;4982024;28;20070;-71
2021/11/14 12:33:44;;;;;;;4.00;1.10;;;7.30;99.90;;;;;;4982451;28;20054;-67
2021/11/14 12:36:35;;;;;;;1.40;1.10;;;7.30;99.90;;;;;;4984087;28;20161;-65
2021/11/14 12:39:32;;;;;;;3.75;1.48;;;7.30;99.90;;;;;;4981772;28;20112;-68
2021/11/14 12:42:14;;;;;;;1.20;1.10;;;7.40;99.90;;;;;;4984909;28;20042;-64
2021/11/14 12:44:48;;;;;;;4.45;0.70;;;7.50;99.90;;;;;;4975096;28;20373;-70
2021/11/14 12:47:21;;;;;;;0.98;0.80;;;7.60;99.90;;;;;;4980313;28;20055;-64
2021/11/14 12:49:49;;;;;;;1.13;0.98;;;7.60;99.90;;;;;;4980791;28;20097;-63
2021/11/14 12:52:37;;;;;;;2.10;0.80;;;7.60;99.90;;;;;;4980333;28;20077;-64
2021/11/14 12:55:12;;;;;;;2.08;1.30;;;7.70;99.90;;;;;;4979455;28;20532;-65
2021/11/14 12:57:47;;;;;;;3.38;1.65;;;7.70;99.90;;;;;;4982367;28;20069;-66
2021/11/14 13:00:35;;;;;;;3.17;0.85;;;7.70;99.90;;;;;;4981290;28;20201;-64
2021/11/14 13:03:04;;;;;;;2.38;1.30;;;7.70;99.90;;;;;;4976745;28;20096;-66
2021/11/14 13:05:43;;;;;;;5.80;2.28;;;7.60;99.90;;;;;;4982052;28;20066;-65
2021/11/14 13:08:20;;;;;;;4.30;2.40;;;7.60;99.90;;;;;;4980628;28;20074;-64
2021/11/14 13:10:51;;;;;;;4.70;1.35;;;7.50;99.90;;;;;;4971210;28;20070;-64
2021/11/14 13:13:36;;;;;;;2.08;0.63;;;7.50;99.90;;;;;;4982497;28;20066;-64